sensor_id;sensor_type;location;lat;lon;timestamp;temperature;humidity
32811;DHT22;65470;47.324;8.548;2023-06-22T00:02:17;23.20;99.90
32811;DHT22;65470;47.324;8.548;2023-06-22T00:04:43;23.20;99.90
32811;DHT22;65470;47.324;8.548;2023-06-22T00:07:09;23.10;99.90
32811;DHT22;65470;47.324;8.548;2023-06-22T00:09:35;23.10;99.90
32811;DHT22;65470;47.324;8.548;2023-06-22T00:12:01;23.00;99.90
32811;DHT22;65470;47.324;8.548;2023-06-22T00:14:27;23.10;99.90
32811;DHT22;65470;47.324;8.548;2023-06-22T00:16:53;23.00;99.90
32811;DHT22;65470;47.324;8.548;2023-06-22T00:19:23;23.10;99.90
32811;DHT22;65470;47.324;8.548;2023-06-22T00:21:49;23.10;99.90
32811;DHT22;65470;47.324;8.548;2023-06-22T00:24:21;23.00;99.90
32811;DHT22;65470;47.324;8.548;2023-06-22T00:26:50;23.10;99.90
32811;DHT22;65470;47.324;8.548;2023-06-22T00:29:16;23.00;99.90
32811;DHT22;65470;47.324;8.548;2023-06-22T00:31:42;23.00;99.90
32811;DHT22;65470;47.324;8.548;2023-06-22T00:34:08;22.90;99.90
32811;DHT22;65470;47.324;8.548;2023-06-22T00:36:34;22.90;99.90
32811;DHT22;65470;47.324;8.548;2023-06-22T00:39:00;22.90;99.90
32811;DHT22;65470;47.324;8.548;2023-06-22T00:41:26;22.90;99.90
32811;DHT22;65470;47.324;8.548;2023-06-22T00:43:54;22.90;99.90
32811;DHT22;65470;47.324;8.548;2023-06-22T00:46:20;22.90;99.90
32811;DHT22;65470;47.324;8.548;2023-06-22T00:48:46;22.80;99.90
32811;DHT22;65470;47.324;8.548;2023-06-22T00:51:12;22.80;99.90
32811;DHT22;65470;47.324;8.548;2023-06-22T00:53:37;22.80;99.90
32811;DHT22;65470;47.324;8.548;2023-06-22T00:56:03;22.70;99.90
32811;DHT22;65470;47.324;8.548;2023-06-22T00:58:31;22.60;99.90
32811;DHT22;65470;47.324;8.548;2023-06-22T01:00:57;22.60;99.90
32811;DHT22;65470;47.324;8.548;2023-06-22T01:03:22;22.60;99.90
32811;DHT22;65470;47.324;8.548;2023-06-22T01:05:48;22.60;99.90
32811;DHT22;65470;47.324;8.548;2023-06-22T01:08:34;22.60;99.90
32811;DHT22;65470;47.324;8.548;2023-06-22T01:11:13;22.50;99.90
32811;DHT22;65470;47.324;8.548;2023-06-22T01:14:00;22.40;99.90
32811;DHT22;65470;47.324;8.548;2023-06-22T01:16:35;22.40;99.90
32811;DHT22;65470;47.324;8.548;2023-06-22T01:19:09;22.30;99.90
32811;DHT22;65470;47.324;8.548;2023-06-22T01:21:41;22.40;99.90
32811;DHT22;65470;47.324;8.548;2023-06-22T01:24:27;22.30;99.90
32811;DHT22;65470;47.324;8.548;2023-06-22T01:27:49;22.40;99.90
32811;DHT22;65470;47.324;8.548;2023-06-22T01:30:11;22.40;99.90
32811;DHT22;65470;47.324;8.548;2023-06-22T01:32:40;22.40;99.90
32811;DHT22;65470;47.324;8.548;2023-06-22T01:35:08;22.40;99.90
32811;DHT22;65470;47.324;8.548;2023-06-22T01:37:36;22.30;99.90
32811;DHT22;65470;47.324;8.548;2023-06-22T01:40:03;22.30;99.90
32811;DHT22;65470;47.324;8.548;2023-06-22T01:42:32;22.30;99.90
32811;DHT22;65470;47.324;8.548;2023-06-22T01:44:59;22.30;99.90
32811;DHT22;65470;47.324;8.548;2023-06-22T01:47:26;22.40;99.90
32811;DHT22;65470;47.324;8.548;2023-06-22T01:49:53;22.40;99.90
32811;DHT22;65470;47.324;8.548;2023-06-22T01:52:19;22.40;99.90
32811;DHT22;65470;47.324;8.548;2023-06-22T01:54:46;22.40;99.90
32811;DHT22;65470;47.324;8.548;2023-06-22T01:57:12;22.40;99.90
32811;DHT22;65470;47.324;8.548;2023-06-22T01:59:51;22.30;99.90
32811;DHT22;65470;47.324;8.548;2023-06-22T02:05:33;22.30;99.90
32811;DHT22;65470;47.324;8.548;2023-06-22T02:08:21;22.20;99.90
32811;DHT22;65470;47.324;8.548;2023-06-22T02:10:48;22.10;99.90
32811;DHT22;65470;47.324;8.548;2023-06-22T02:13:14;22.10;99.90
32811;DHT22;65470;47.324;8.548;2023-06-22T02:15:41;22.10;99.90
32811;DHT22;65470;47.324;8.548;2023-06-22T02:18:07;22.10;99.90
32811;DHT22;65470;47.324;8.548;2023-06-22T02:20:35;22.10;99.90
32811;DHT22;65470;47.324;8.548;2023-06-22T02:23:01;22.10;99.90
32811;DHT22;65470;47.324;8.548;2023-06-22T02:25:26;22.00;99.90
32811;DHT22;65470;47.324;8.548;2023-06-22T02:27:52;22.00;99.90
32811;DHT22;65470;47.324;8.548;2023-06-22T02:30:18;21.90;99.90
32811;DHT22;65470;47.324;8.548;2023-06-22T02:32:43;21.90;99.90
32811;DHT22;65470;47.324;8.548;2023-06-22T02:35:09;21.80;99.90
32811;DHT22;65470;47.324;8.548;2023-06-22T02:37:36;21.80;99.90
32811;DHT22;65470;47.324;8.548;2023-06-22T02:40:07;21.70;99.90
32811;DHT22;65470;47.324;8.548;2023-06-22T02:42:34;21.70;99.90
32811;DHT22;65470;47.324;8.548;2023-06-22T02:45:00;21.70;99.90
32811;DHT22;65470;47.324;8.548;2023-06-22T02:47:26;21.70;99.90
32811;DHT22;65470;47.324;8.548;2023-06-22T02:49:52;21.70;99.90
32811;DHT22;65470;47.324;8.548;2023-06-22T02:52:18;21.70;99.90
32811;DHT22;65470;47.324;8.548;2023-06-22T02:54:43;21.70;99.90
32811;DHT22;65470;47.324;8.548;2023-06-22T02:57:11;21.70;99.90
32811;DHT22;65470;47.324;8.548;2023-06-22T02:59:39;21.70;99.90
32811;DHT22;65470;47.324;8.548;2023-06-22T03:02:07;21.60;99.90
32811;DHT22;65470;47.324;8.548;2023-06-22T03:04:33;21.60;99.90
32811;DHT22;65470;47.324;8.548;2023-06-22T03:06:59;21.60;99.90
32811;DHT22;65470;47.324;8.548;2023-06-22T03:09:27;21.60;99.90
32811;DHT22;65470;47.324;8.548;2023-06-22T03:11:55;21.50;99.90
32811;DHT22;65470;47.324;8.548;2023-06-22T03:14:21;21.50;99.90
32811;DHT22;65470;47.324;8.548;2023-06-22T03:16:47;21.50;99.90
32811;DHT22;65470;47.324;8.548;2023-06-22T03:19:13;21.50;99.90
32811;DHT22;65470;47.324;8.548;2023-06-22T03:21:39;21.50;99.90
32811;DHT22;65470;47.324;8.548;2023-06-22T03:24:06;21.50;99.90
32811;DHT22;65470;47.324;8.548;2023-06-22T03:26:32;21.50;99.90
32811;DHT22;65470;47.324;8.548;2023-06-22T03:28:57;21.40;99.90
32811;DHT22;65470;47.324;8.548;2023-06-22T03:31:23;21.40;99.90
32811;DHT22;65470;47.324;8.548;2023-06-22T03:33:49;21.40;99.90
32811;DHT22;65470;47.324;8.548;2023-06-22T03:36:15;21.30;99.90
32811;DHT22;65470;47.324;8.548;2023-06-22T03:38:45;21.30;99.90
32811;DHT22;65470;47.324;8.548;2023-06-22T03:41:11;21.30;99.90
32811;DHT22;65470;47.324;8.548;2023-06-22T03:43:37;21.30;99.90
32811;DHT22;65470;47.324;8.548;2023-06-22T03:46:02;21.30;99.90
32811;DHT22;65470;47.324;8.548;2023-06-22T03:48:28;21.30;99.90
32811;DHT22;65470;47.324;8.548;2023-06-22T03:50:53;21.30;99.90
32811;DHT22;65470;47.324;8.548;2023-06-22T03:53:19;21.30;99.90
32811;DHT22;65470;47.324;8.548;2023-06-22T03:55:49;21.30;99.90
32811;DHT22;65470;47.324;8.548;2023-06-22T03:58:16;21.30;99.90
32811;DHT22;65470;47.324;8.548;2023-06-22T04:00:47;21.40;99.90
32811;DHT22;65470;47.324;8.548;2023-06-22T04:03:14;21.40;99.90
32811;DHT22;65470;47.324;8.548;2023-06-22T04:05:41;21.40;99.90
32811;DHT22;65470;47.324;8.548;2023-06-22T04:08:07;21.40;99.90
32811;DHT22;65470;47.324;8.548;2023-06-22T04:10:32;21.50;99.90
32811;DHT22;65470;47.324;8.548;2023-06-22T04:12:58;21.40;99.90
32811;DHT22;65470;47.324;8.548;2023-06-22T04:15:24;21.50;99.90
32811;DHT22;65470;47.324;8.548;2023-06-22T04:17:49;21.50;99.90
32811;DHT22;65470;47.324;8.548;2023-06-22T04:20:15;21.60;99.90
32811;DHT22;65470;47.324;8.548;2023-06-22T04:22:40;21.60;99.90
32811;DHT22;65470;47.324;8.548;2023-06-22T04:25:06;21.70;99.90
32811;DHT22;65470;47.324;8.548;2023-06-22T04:27:35;21.70;99.90
32811;DHT22;65470;47.324;8.548;2023-06-22T04:30:03;21.80;99.90
32811;DHT22;65470;47.324;8.548;2023-06-22T04:32:29;21.80;99.90
32811;DHT22;65470;47.324;8.548;2023-06-22T04:34:54;21.90;99.90
32811;DHT22;65470;47.324;8.548;2023-06-22T04:37:20;22.00;99.90
32811;DHT22;65470;47.324;8.548;2023-06-22T04:39:49;22.10;99.90
32811;DHT22;65470;47.324;8.548;2023-06-22T04:42:14;22.20;99.90
32811;DHT22;65470;47.324;8.548;2023-06-22T04:44:40;22.30;99.90
32811;DHT22;65470;47.324;8.548;2023-06-22T04:47:07;22.40;99.90
32811;DHT22;65470;47.324;8.548;2023-06-22T04:49:35;22.40;99.90
32811;DHT22;65470;47.324;8.548;2023-06-22T04:52:03;22.60;99.90
32811;DHT22;65470;47.324;8.548;2023-06-22T04:54:29;22.80;99.90
32811;DHT22;65470;47.324;8.548;2023-06-22T04:57:07;23.00;99.90
32811;DHT22;65470;47.324;8.548;2023-06-22T04:59:37;23.10;99.90
32811;DHT22;65470;47.324;8.548;2023-06-22T05:02:04;23.20;99.90
32811;DHT22;65470;47.324;8.548;2023-06-22T05:04:31;23.40;99.90
32811;DHT22;65470;47.324;8.548;2023-06-22T05:06:57;23.50;99.90
32811;DHT22;65470;47.324;8.548;2023-06-22T05:09:23;23.70;99.90
32811;DHT22;65470;47.324;8.548;2023-06-22T05:11:50;23.90;99.90
32811;DHT22;65470;47.324;8.548;2023-06-22T05:14:17;24.00;99.90
32811;DHT22;65470;47.324;8.548;2023-06-22T05:16:43;24.10;99.90
32811;DHT22;65470;47.324;8.548;2023-06-22T05:19:09;24.20;99.90
32811;DHT22;65470;47.324;8.548;2023-06-22T05:21:35;24.30;99.90
32811;DHT22;65470;47.324;8.548;2023-06-22T05:24:01;24.40;99.90
32811;DHT22;65470;47.324;8.548;2023-06-22T05:26:32;24.50;99.90
32811;DHT22;65470;47.324;8.548;2023-06-22T05:29:00;24.70;99.90
32811;DHT22;65470;47.324;8.548;2023-06-22T05:31:26;24.90;99.90
32811;DHT22;65470;47.324;8.548;2023-06-22T05:33:53;25.10;99.90
32811;DHT22;65470;47.324;8.548;2023-06-22T05:36:20;25.20;99.90
32811;DHT22;65470;47.324;8.548;2023-06-22T05:38:46;25.30;99.90
32811;DHT22;65470;47.324;8.548;2023-06-22T05:41:12;25.40;99.90
32811;DHT22;65470;47.324;8.548;2023-06-22T05:43:38;25.60;99.90
32811;DHT22;65470;47.324;8.548;2023-06-22T05:46:04;25.70;99.90
32811;DHT22;65470;47.324;8.548;2023-06-22T05:48:30;25.80;99.90
32811;DHT22;65470;47.324;8.548;2023-06-22T05:50:56;25.80;99.90
32811;DHT22;65470;47.324;8.548;2023-06-22T05:53:22;25.90;99.90
32811;DHT22;65470;47.324;8.548;2023-06-22T05:55:48;25.90;99.90
32811;DHT22;65470;47.324;8.548;2023-06-22T05:58:13;26.00;99.90
32811;DHT22;65470;47.324;8.548;2023-06-22T06:00:40;26.00;99.90
32811;DHT22;65470;47.324;8.548;2023-06-22T06:03:07;26.10;99.90
32811;DHT22;65470;47.324;8.548;2023-06-22T06:05:34;26.20;99.90
32811;DHT22;65470;47.324;8.548;2023-06-22T06:08:01;26.40;99.90
32811;DHT22;65470;47.324;8.548;2023-06-22T06:10:26;26.40;99.90
32811;DHT22;65470;47.324;8.548;2023-06-22T06:12:53;26.70;99.90
32811;DHT22;65470;47.324;8.548;2023-06-22T06:15:18;26.80;99.90
32811;DHT22;65470;47.324;8.548;2023-06-22T06:17:52;27.00;99.90
32811;DHT22;65470;47.324;8.548;2023-06-22T06:20:19;27.10;99.90
32811;DHT22;65470;47.324;8.548;2023-06-22T06:22:45;27.10;99.90
32811;DHT22;65470;47.324;8.548;2023-06-22T06:25:12;27.40;99.90
32811;DHT22;65470;47.324;8.548;2023-06-22T06:27:42;27.50;99.90
32811;DHT22;65470;47.324;8.548;2023-06-22T06:30:09;27.60;99.90
32811;DHT22;65470;47.324;8.548;2023-06-22T06:32:35;27.40;99.90
32811;DHT22;65470;47.324;8.548;2023-06-22T06:35:00;27.60;99.90
32811;DHT22;65470;47.324;8.548;2023-06-22T06:37:26;27.80;99.90
32811;DHT22;65470;47.324;8.548;2023-06-22T06:39:53;28.00;99.90
32811;DHT22;65470;47.324;8.548;2023-06-22T06:42:18;28.00;99.90
32811;DHT22;65470;47.324;8.548;2023-06-22T06:44:45;28.10;99.90
32811;DHT22;65470;47.324;8.548;2023-06-22T06:47:10;28.30;99.90
32811;DHT22;65470;47.324;8.548;2023-06-22T06:49:36;28.60;99.90
32811;DHT22;65470;47.324;8.548;2023-06-22T06:52:02;28.70;99.90
32811;DHT22;65470;47.324;8.548;2023-06-22T06:54:27;28.80;99.90
32811;DHT22;65470;47.324;8.548;2023-06-22T06:56:53;29.00;99.90
32811;DHT22;65470;47.324;8.548;2023-06-22T06:59:19;29.30;99.90
32811;DHT22;65470;47.324;8.548;2023-06-22T07:01:44;29.50;99.90
32811;DHT22;65470;47.324;8.548;2023-06-22T07:04:10;29.90;99.90
32811;DHT22;65470;47.324;8.548;2023-06-22T07:06:36;30.10;99.90
32811;DHT22;65470;47.324;8.548;2023-06-22T07:09:03;30.40;99.90
32811;DHT22;65470;47.324;8.548;2023-06-22T07:11:29;30.60;99.90
32811;DHT22;65470;47.324;8.548;2023-06-22T07:13:54;30.70;99.90
32811;DHT22;65470;47.324;8.548;2023-06-22T07:16:20;30.60;99.90
32811;DHT22;65470;47.324;8.548;2023-06-22T07:18:45;30.40;99.90
32811;DHT22;65470;47.324;8.548;2023-06-22T07:21:11;30.20;99.90
32811;DHT22;65470;47.324;8.548;2023-06-22T07:23:37;29.90;99.90
32811;DHT22;65470;47.324;8.548;2023-06-22T07:26:02;29.40;99.90
32811;DHT22;65470;47.324;8.548;2023-06-22T07:28:28;29.10;99.90
32811;DHT22;65470;47.324;8.548;2023-06-22T07:30:57;28.90;99.90
32811;DHT22;65470;47.324;8.548;2023-06-22T07:33:22;28.50;99.90
32811;DHT22;65470;47.324;8.548;2023-06-22T07:35:48;28.00;99.90
32811;DHT22;65470;47.324;8.548;2023-06-22T07:38:16;27.80;99.90
32811;DHT22;65470;47.324;8.548;2023-06-22T07:40:42;27.90;99.90
32811;DHT22;65470;47.324;8.548;2023-06-22T07:43:07;27.60;99.90
32811;DHT22;65470;47.324;8.548;2023-06-22T07:45:33;27.50;99.90
32811;DHT22;65470;47.324;8.548;2023-06-22T07:48:02;27.50;99.90
32811;DHT22;65470;47.324;8.548;2023-06-22T07:50:27;28.10;99.90
32811;DHT22;65470;47.324;8.548;2023-06-22T07:52:53;28.80;99.90
32811;DHT22;65470;47.324;8.548;2023-06-22T07:55:18;29.00;99.90
32811;DHT22;65470;47.324;8.548;2023-06-22T07:57:46;29.90;99.90
32811;DHT22;65470;47.324;8.548;2023-06-22T08:00:12;30.20;99.90
32811;DHT22;65470;47.324;8.548;2023-06-22T08:02:40;29.90;99.90
32811;DHT22;65470;47.324;8.548;2023-06-22T08:05:07;30.50;99.90
32811;DHT22;65470;47.324;8.548;2023-06-22T08:07:34;31.20;99.90
32811;DHT22;65470;47.324;8.548;2023-06-22T08:10:02;31.90;99.90
32811;DHT22;65470;47.324;8.548;2023-06-22T08:12:28;32.10;99.90
32811;DHT22;65470;47.324;8.548;2023-06-22T08:14:54;32.10;99.90
32811;DHT22;65470;47.324;8.548;2023-06-22T08:17:19;32.30;99.90
32811;DHT22;65470;47.324;8.548;2023-06-22T08:19:45;32.30;99.90
32811;DHT22;65470;47.324;8.548;2023-06-22T08:22:10;32.00;99.90
32811;DHT22;65470;47.324;8.548;2023-06-22T08:24:36;32.00;99.90
32811;DHT22;65470;47.324;8.548;2023-06-22T08:27:03;32.20;99.90
32811;DHT22;65470;47.324;8.548;2023-06-22T08:29:33;32.20;99.90
32811;DHT22;65470;47.324;8.548;2023-06-22T08:31:59;32.30;99.90
32811;DHT22;65470;47.324;8.548;2023-06-22T08:34:25;32.00;99.90
32811;DHT22;65470;47.324;8.548;2023-06-22T08:36:50;32.10;99.90
32811;DHT22;65470;47.324;8.548;2023-06-22T08:39:19;32.50;99.90
32811;DHT22;65470;47.324;8.548;2023-06-22T08:41:46;32.70;99.90
32811;DHT22;65470;47.324;8.548;2023-06-22T08:44:11;33.00;99.90
32811;DHT22;65470;47.324;8.548;2023-06-22T08:46:37;33.30;99.90
32811;DHT22;65470;47.324;8.548;2023-06-22T08:49:04;33.50;99.80
32811;DHT22;65470;47.324;8.548;2023-06-22T08:51:29;33.80;98.70
32811;DHT22;65470;47.324;8.548;2023-06-22T08:53:55;34.20;96.30
32811;DHT22;65470;47.324;8.548;2023-06-22T08:56:21;34.00;97.70
32811;DHT22;65470;47.324;8.548;2023-06-22T08:58:46;33.40;97.00
32811;DHT22;65470;47.324;8.548;2023-06-22T09:01:12;33.00;98.40
32811;DHT22;65470;47.324;8.548;2023-06-22T09:03:37;32.70;98.80
32811;DHT22;65470;47.324;8.548;2023-06-22T09:06:03;32.20;99.40
32811;DHT22;65470;47.324;8.548;2023-06-22T09:08:29;32.20;99.70
32811;DHT22;65470;47.324;8.548;2023-06-22T09:10:55;32.00;99.90
32811;DHT22;65470;47.324;8.548;2023-06-22T09:13:20;32.40;99.20
32811;DHT22;65470;47.324;8.548;2023-06-22T09:15:47;32.80;98.70
32811;DHT22;65470;47.324;8.548;2023-06-22T09:18:13;32.40;97.20
32811;DHT22;65470;47.324;8.548;2023-06-22T09:20:39;32.50;98.00
32811;DHT22;65470;47.324;8.548;2023-06-22T09:23:05;31.90;97.90
32811;DHT22;65470;47.324;8.548;2023-06-22T09:25:31;32.20;99.30
32811;DHT22;65470;47.324;8.548;2023-06-22T09:27:56;33.10;99.40
32811;DHT22;65470;47.324;8.548;2023-06-22T09:30:22;34.00;96.30
32811;DHT22;65470;47.324;8.548;2023-06-22T09:32:47;33.80;94.90
32811;DHT22;65470;47.324;8.548;2023-06-22T09:35:13;34.00;94.10
32811;DHT22;65470;47.324;8.548;2023-06-22T09:37:40;33.70;93.40
32811;DHT22;65470;47.324;8.548;2023-06-22T09:40:07;33.80;94.80
32811;DHT22;65470;47.324;8.548;2023-06-22T09:42:38;33.60;93.30
32811;DHT22;65470;47.324;8.548;2023-06-22T09:45:04;33.40;93.10
32811;DHT22;65470;47.324;8.548;2023-06-22T09:47:30;33.30;94.90
32811;DHT22;65470;47.324;8.548;2023-06-22T09:49:55;33.20;94.10
32811;DHT22;65470;47.324;8.548;2023-06-22T09:52:21;33.00;94.30
32811;DHT22;65470;47.324;8.548;2023-06-22T09:54:47;32.90;94.90
32811;DHT22;65470;47.324;8.548;2023-06-22T09:57:13;33.00;94.90
32811;DHT22;65470;47.324;8.548;2023-06-22T09:59:39;33.00;94.90
32811;DHT22;65470;47.324;8.548;2023-06-22T10:02:07;32.60;96.20
32811;DHT22;65470;47.324;8.548;2023-06-22T10:04:36;32.80;95.50
32811;DHT22;65470;47.324;8.548;2023-06-22T10:07:02;32.20;96.30
32811;DHT22;65470;47.324;8.548;2023-06-22T10:09:28;32.20;96.20
32811;DHT22;65470;47.324;8.548;2023-06-22T10:11:53;32.20;96.00
32811;DHT22;65470;47.324;8.548;2023-06-22T10:14:19;32.10;96.90
32811;DHT22;65470;47.324;8.548;2023-06-22T10:16:45;31.70;96.70
32811;DHT22;65470;47.324;8.548;2023-06-22T10:19:11;31.20;97.40
32811;DHT22;65470;47.324;8.548;2023-06-22T10:21:36;30.70;98.30
32811;DHT22;65470;47.324;8.548;2023-06-22T10:24:02;30.60;98.80
32811;DHT22;65470;47.324;8.548;2023-06-22T10:26:35;30.60;99.90
32811;DHT22;65470;47.324;8.548;2023-06-22T10:29:04;30.40;99.90
32811;DHT22;65470;47.324;8.548;2023-06-22T10:31:29;30.00;99.90
32811;DHT22;65470;47.324;8.548;2023-06-22T10:33:55;29.80;99.90
32811;DHT22;65470;47.324;8.548;2023-06-22T10:36:22;29.40;99.90
32811;DHT22;65470;47.324;8.548;2023-06-22T10:38:48;29.60;99.90
32811;DHT22;65470;47.324;8.548;2023-06-22T10:41:14;29.80;99.90
32811;DHT22;65470;47.324;8.548;2023-06-22T10:43:40;29.80;99.90
32811;DHT22;65470;47.324;8.548;2023-06-22T10:46:06;30.20;99.90
32811;DHT22;65470;47.324;8.548;2023-06-22T10:48:32;31.10;99.90
32811;DHT22;65470;47.324;8.548;2023-06-22T10:50:58;31.50;99.90
32811;DHT22;65470;47.324;8.548;2023-06-22T10:53:24;31.40;99.90
32811;DHT22;65470;47.324;8.548;2023-06-22T10:55:49;31.80;99.90
32811;DHT22;65470;47.324;8.548;2023-06-22T10:58:17;31.70;99.90
32811;DHT22;65470;47.324;8.548;2023-06-22T11:00:43;31.60;99.90
32811;DHT22;65470;47.324;8.548;2023-06-22T11:03:08;31.40;99.90
32811;DHT22;65470;47.324;8.548;2023-06-22T11:05:34;31.30;99.90
32811;DHT22;65470;47.324;8.548;2023-06-22T11:08:00;30.60;99.90
32811;DHT22;65470;47.324;8.548;2023-06-22T11:10:25;30.50;99.90
32811;DHT22;65470;47.324;8.548;2023-06-22T11:12:52;30.50;99.90
32811;DHT22;65470;47.324;8.548;2023-06-22T11:15:18;30.50;99.90
32811;DHT22;65470;47.324;8.548;2023-06-22T11:17:44;30.70;99.90
32811;DHT22;65470;47.324;8.548;2023-06-22T11:20:10;31.00;99.90
32811;DHT22;65470;47.324;8.548;2023-06-22T11:22:37;31.20;99.90
32811;DHT22;65470;47.324;8.548;2023-06-22T11:25:05;31.40;99.90
32811;DHT22;65470;47.324;8.548;2023-06-22T11:27:30;31.50;99.70
32811;DHT22;65470;47.324;8.548;2023-06-22T11:29:56;31.40;99.90
32811;DHT22;65470;47.324;8.548;2023-06-22T11:32:22;31.60;99.30
32811;DHT22;65470;47.324;8.548;2023-06-22T11:34:48;31.60;99.90
32811;DHT22;65470;47.324;8.548;2023-06-22T11:37:13;31.80;99.60
32811;DHT22;65470;47.324;8.548;2023-06-22T11:39:41;31.90;99.40
32811;DHT22;65470;47.324;8.548;2023-06-22T11:42:07;31.90;99.70
32811;DHT22;65470;47.324;8.548;2023-06-22T11:44:32;32.20;99.40
32811;DHT22;65470;47.324;8.548;2023-06-22T11:46:58;32.40;98.10
32811;DHT22;65470;47.324;8.548;2023-06-22T11:49:26;32.40;97.60
32811;DHT22;65470;47.324;8.548;2023-06-22T11:51:52;32.50;97.40
32811;DHT22;65470;47.324;8.548;2023-06-22T11:54:17;32.70;96.90
32811;DHT22;65470;47.324;8.548;2023-06-22T11:56:43;32.70;97.20
32811;DHT22;65470;47.324;8.548;2023-06-22T11:59:08;32.80;97.00
32811;DHT22;65470;47.324;8.548;2023-06-22T12:01:34;32.80;97.20
32811;DHT22;65470;47.324;8.548;2023-06-22T12:04:00;32.90;96.70
32811;DHT22;65470;47.324;8.548;2023-06-22T12:06:25;33.20;95.10
32811;DHT22;65470;47.324;8.548;2023-06-22T12:08:51;33.60;93.80
32811;DHT22;65470;47.324;8.548;2023-06-22T12:11:16;33.80;94.40
32811;DHT22;65470;47.324;8.548;2023-06-22T12:13:42;34.10;93.70
32811;DHT22;65470;47.324;8.548;2023-06-22T12:16:08;34.30;93.40
32811;DHT22;65470;47.324;8.548;2023-06-22T12:18:33;34.30;92.50
32811;DHT22;65470;47.324;8.548;2023-06-22T12:20:59;34.40;92.10
32811;DHT22;65470;47.324;8.548;2023-06-22T12:23:24;34.80;91.20
32811;DHT22;65470;47.324;8.548;2023-06-22T12:25:50;34.80;90.50
32811;DHT22;65470;47.324;8.548;2023-06-22T12:28:16;34.70;89.30
32811;DHT22;65470;47.324;8.548;2023-06-22T12:30:41;33.90;90.30
32811;DHT22;65470;47.324;8.548;2023-06-22T12:33:07;33.80;91.10
32811;DHT22;65470;47.324;8.548;2023-06-22T12:35:33;33.80;92.20
32811;DHT22;65470;47.324;8.548;2023-06-22T12:37:58;34.30;92.80
32811;DHT22;65470;47.324;8.548;2023-06-22T12:40:24;34.60;92.60
32811;DHT22;65470;47.324;8.548;2023-06-22T12:42:50;34.60;92.70
32811;DHT22;65470;47.324;8.548;2023-06-22T12:45:15;34.70;93.40
32811;DHT22;65470;47.324;8.548;2023-06-22T12:47:41;34.60;92.90
32811;DHT22;65470;47.324;8.548;2023-06-22T12:50:07;34.50;92.40
32811;DHT22;65470;47.324;8.548;2023-06-22T12:52:33;34.30;92.50
32811;DHT22;65470;47.324;8.548;2023-06-22T12:54:58;34.40;91.70
32811;DHT22;65470;47.324;8.548;2023-06-22T12:57:24;34.50;90.60
32811;DHT22;65470;47.324;8.548;2023-06-22T12:59:50;34.80;90.80
32811;DHT22;65470;47.324;8.548;2023-06-22T13:02:16;35.20;90.00
32811;DHT22;65470;47.324;8.548;2023-06-22T13:04:42;35.70;84.60
32811;DHT22;65470;47.324;8.548;2023-06-22T13:07:08;35.60;88.40
32811;DHT22;65470;47.324;8.548;2023-06-22T13:09:36;35.40;84.50
32811;DHT22;65470;47.324;8.548;2023-06-22T13:12:02;35.20;80.70
32811;DHT22;65470;47.324;8.548;2023-06-22T13:14:28;34.90;80.00
32811;DHT22;65470;47.324;8.548;2023-06-22T13:16:53;34.70;80.90
32811;DHT22;65470;47.324;8.548;2023-06-22T13:19:19;34.90;83.80
32811;DHT22;65470;47.324;8.548;2023-06-22T13:21:44;34.90;78.70
32811;DHT22;65470;47.324;8.548;2023-06-22T13:24:10;34.80;77.40
32811;DHT22;65470;47.324;8.548;2023-06-22T13:26:35;34.50;78.80
32811;DHT22;65470;47.324;8.548;2023-06-22T13:29:01;33.80;75.20
32811;DHT22;65470;47.324;8.548;2023-06-22T13:31:27;33.40;76.70
32811;DHT22;65470;47.324;8.548;2023-06-22T13:33:52;33.60;78.70
32811;DHT22;65470;47.324;8.548;2023-06-22T13:36:18;33.50;75.10
32811;DHT22;65470;47.324;8.548;2023-06-22T13:38:44;33.10;75.20
32811;DHT22;65470;47.324;8.548;2023-06-22T13:41:10;32.50;76.30
32811;DHT22;65470;47.324;8.548;2023-06-22T13:43:35;32.20;74.60
32811;DHT22;65470;47.324;8.548;2023-06-22T13:46:01;31.80;75.20
32811;DHT22;65470;47.324;8.548;2023-06-22T13:48:26;31.80;75.60
32811;DHT22;65470;47.324;8.548;2023-06-22T13:50:54;31.70;75.80
32811;DHT22;65470;47.324;8.548;2023-06-22T13:53:19;31.20;74.90
32811;DHT22;65470;47.324;8.548;2023-06-22T13:55:45;31.00;75.90
32811;DHT22;65470;47.324;8.548;2023-06-22T13:58:12;30.70;76.90
32811;DHT22;65470;47.324;8.548;2023-06-22T14:00:37;30.70;77.30
32811;DHT22;65470;47.324;8.548;2023-06-22T14:03:03;30.60;77.20
32811;DHT22;65470;47.324;8.548;2023-06-22T14:05:28;30.40;77.40
32811;DHT22;65470;47.324;8.548;2023-06-22T14:07:54;30.30;77.30
32811;DHT22;65470;47.324;8.548;2023-06-22T14:10:20;30.00;78.50
32811;DHT22;65470;47.324;8.548;2023-06-22T14:12:45;29.70;79.60
32811;DHT22;65470;47.324;8.548;2023-06-22T14:15:11;29.60;81.20
32811;DHT22;65470;47.324;8.548;2023-06-22T14:17:37;29.40;82.20
32811;DHT22;65470;47.324;8.548;2023-06-22T14:20:02;29.50;83.00
32811;DHT22;65470;47.324;8.548;2023-06-22T14:22:29;29.50;86.20
32811;DHT22;65470;47.324;8.548;2023-06-22T14:24:55;29.60;87.10
32811;DHT22;65470;47.324;8.548;2023-06-22T14:27:23;29.50;87.40
32811;DHT22;65470;47.324;8.548;2023-06-22T14:29:48;29.50;89.40
32811;DHT22;65470;47.324;8.548;2023-06-22T14:32:14;29.30;91.20
32811;DHT22;65470;47.324;8.548;2023-06-22T14:34:39;29.30;91.60
32811;DHT22;65470;47.324;8.548;2023-06-22T14:37:08;29.20;92.40
32811;DHT22;65470;47.324;8.548;2023-06-22T14:39:38;29.20;91.90
32811;DHT22;65470;47.324;8.548;2023-06-22T14:42:05;29.20;92.50
32811;DHT22;65470;47.324;8.548;2023-06-22T14:44:30;29.20;91.80
32811;DHT22;65470;47.324;8.548;2023-06-22T14:46:56;29.10;91.10
32811;DHT22;65470;47.324;8.548;2023-06-22T14:49:22;29.10;91.60
32811;DHT22;65470;47.324;8.548;2023-06-22T14:51:48;29.20;91.80
32811;DHT22;65470;47.324;8.548;2023-06-22T14:54:13;29.40;92.10
32811;DHT22;65470;47.324;8.548;2023-06-22T14:56:39;29.60;90.70
32811;DHT22;65470;47.324;8.548;2023-06-22T14:59:05;30.00;90.70
32811;DHT22;65470;47.324;8.548;2023-06-22T15:01:31;30.10;88.80
32811;DHT22;65470;47.324;8.548;2023-06-22T15:03:56;30.00;89.30
32811;DHT22;65470;47.324;8.548;2023-06-22T15:06:22;30.30;89.00
32811;DHT22;65470;47.324;8.548;2023-06-22T15:08:48;30.50;87.80
32811;DHT22;65470;47.324;8.548;2023-06-22T15:11:13;30.70;87.30
32811;DHT22;65470;47.324;8.548;2023-06-22T15:13:40;30.70;86.70
32811;DHT22;65470;47.324;8.548;2023-06-22T15:16:06;30.70;86.60
32811;DHT22;65470;47.324;8.548;2023-06-22T15:18:32;30.40;87.80
32811;DHT22;65470;47.324;8.548;2023-06-22T15:20:59;30.20;87.50
32811;DHT22;65470;47.324;8.548;2023-06-22T15:23:27;29.80;89.20
32811;DHT22;65470;47.324;8.548;2023-06-22T15:25:54;29.70;89.00
32811;DHT22;65470;47.324;8.548;2023-06-22T15:28:20;29.70;89.90
32811;DHT22;65470;47.324;8.548;2023-06-22T15:30:47;29.70;90.10